createdAt,value
2023-03-29T00:02:04.057Z,14.60
2023-03-29T00:04:31.414Z,16.10
2023-03-29T00:07:03.750Z,14.30
2023-03-29T00:09:33.434Z,13.10
2023-03-29T00:12:02.107Z,12.50
2023-03-29T00:14:30.289Z,11.50
2023-03-29T00:16:57.885Z,14.70
2023-03-29T00:19:24.788Z,11.50
2023-03-29T00:21:51.312Z,12.40
2023-03-29T00:24:18.158Z,13.90
2023-03-29T00:26:45.297Z,15.20
2023-03-29T00:29:12.173Z,12.20
2023-03-29T00:31:38.948Z,11.30
2023-03-29T00:34:05.570Z,10.70
2023-03-29T00:36:32.149Z,14.80
2023-03-29T00:38:59.931Z,15.30
2023-03-29T00:41:26.795Z,19.50
2023-03-29T00:43:59.295Z,18.60
2023-03-29T00:46:27.855Z,22.50
2023-03-29T00:49:01.520Z,21.00
2023-03-29T00:51:32.982Z,31.10
2023-03-29T00:54:04.418Z,25.00
2023-03-29T00:56:43.432Z,29.50
2023-03-29T00:59:16.260Z,21.80
2023-03-29T01:04:47.395Z,20.70
2023-03-29T01:07:31.833Z,19.90
2023-03-29T01:10:09.010Z,15.70
2023-03-29T01:12:41.719Z,14.20
2023-03-29T01:15:16.164Z,10.50
2023-03-29T01:17:50.231Z,12.60
2023-03-29T01:20:23.449Z,11.60
2023-03-29T01:23:07.750Z,11.40
2023-03-29T01:25:52.078Z,10.20
2023-03-29T01:28:23.052Z,9.20
2023-03-29T01:31:26.391Z,12.10
2023-03-29T01:34:10.882Z,9.10
2023-03-29T01:37:00.245Z,9.60
2023-03-29T01:39:27.239Z,10.40
2023-03-29T01:42:17.341Z,13.00
2023-03-29T01:45:07.721Z,10.80
2023-03-29T01:48:01.747Z,13.30
2023-03-29T01:50:39.271Z,10.90
2023-03-29T01:53:18.308Z,11.50
2023-03-29T01:55:51.830Z,10.10
2023-03-29T01:58:22.463Z,12.60
2023-03-29T02:00:53.941Z,9.60
2023-03-29T02:03:26.412Z,12.40
2023-03-29T02:05:55.250Z,12.10
2023-03-29T02:08:23.351Z,12.40
2023-03-29T02:10:51.862Z,10.50
2023-03-29T02:13:19.817Z,13.90
2023-03-29T02:15:47.529Z,10.10
2023-03-29T02:18:18.813Z,10.20
2023-03-29T02:20:48.615Z,15.50
2023-03-29T02:23:34.530Z,11.50
2023-03-29T02:26:03.617Z,11.50
2023-03-29T02:28:31.746Z,12.40
2023-03-29T02:31:25.796Z,11.10
2023-03-29T02:34:01.931Z,16.20
2023-03-29T02:39:25.113Z,14.20
2023-03-29T02:41:53.650Z,14.30
2023-03-29T02:44:26.890Z,16.50
2023-03-29T02:46:58.091Z,11.90
2023-03-29T02:49:25.578Z,10.80
2023-03-29T02:51:56.126Z,13.40
2023-03-29T02:54:29.624Z,11.60
2023-03-29T02:57:00.902Z,12.10
2023-03-29T02:59:29.843Z,12.10
2023-03-29T03:01:56.663Z,13.20
2023-03-29T03:04:24.030Z,11.00
2023-03-29T03:06:50.844Z,13.10
2023-03-29T03:09:18.272Z,13.00
2023-03-29T03:11:44.886Z,13.60
2023-03-29T03:14:12.217Z,11.90
2023-03-29T03:16:39.047Z,11.00
2023-03-29T03:19:06.924Z,12.90
2023-03-29T03:21:34.935Z,11.40
2023-03-29T03:24:01.843Z,15.00
2023-03-29T03:26:32.070Z,11.60
2023-03-29T03:28:58.717Z,12.80
2023-03-29T03:31:25.800Z,14.10
2023-03-29T03:33:53.438Z,12.70
2023-03-29T03:36:25.691Z,12.50
2023-03-29T03:38:52.866Z,10.60
2023-03-29T03:41:19.799Z,11.70
2023-03-29T03:43:48.850Z,12.40
2023-03-29T03:46:17.345Z,13.60
2023-03-29T03:48:46.370Z,14.90
2023-03-29T03:51:13.094Z,11.60
2023-03-29T03:53:41.432Z,12.40
2023-03-29T03:56:09.010Z,12.50
2023-03-29T03:58:36.467Z,12.30
2023-03-29T04:01:04.670Z,13.80
2023-03-29T04:03:32.043Z,18.20
2023-03-29T04:06:02.437Z,13.90
2023-03-29T04:08:29.004Z,12.10
2023-03-29T04:10:58.732Z,11.10
2023-03-29T04:13:26.866Z,12.70
2023-03-29T04:15:55.037Z,12.40
2023-03-29T04:18:23.735Z,11.30
2023-03-29T04:20:51.438Z,10.20
2023-03-29T04:23:18.260Z,10.80
2023-03-29T04:25:45.132Z,12.60
2023-03-29T04:28:12.400Z,14.90
2023-03-29T04:30:39.239Z,10.80
2023-03-29T04:33:06.567Z,11.80
2023-03-29T04:35:33.541Z,14.00
2023-03-29T04:38:00.399Z,11.40
2023-03-29T04:40:28.667Z,14.70
2023-03-29T04:42:55.247Z,14.90
2023-03-29T04:45:21.809Z,14.10
2023-03-29T04:47:49.563Z,12.30
2023-03-29T04:50:16.153Z,18.10
2023-03-29T04:52:45.166Z,19.80
2023-03-29T04:55:12.207Z,18.00
2023-03-29T04:57:39.033Z,15.40
2023-03-29T05:00:14.836Z,14.10
2023-03-29T05:02:43.792Z,15.50
2023-03-29T05:05:11.408Z,17.90
2023-03-29T05:07:38.073Z,16.10
2023-03-29T05:10:05.272Z,18.20
2023-03-29T05:12:32.541Z,15.30
2023-03-29T05:14:59.274Z,15.30
2023-03-29T05:17:27.005Z,17.00
2023-03-29T05:19:53.984Z,17.70
2023-03-29T05:22:21.434Z,19.20
2023-03-29T05:24:48.585Z,14.40
2023-03-29T05:27:16.822Z,17.90
2023-03-29T05:29:45.369Z,19.30
2023-03-29T05:32:13.198Z,17.40
2023-03-29T05:34:41.857Z,17.70
2023-03-29T05:37:08.618Z,15.70
2023-03-29T05:39:37.775Z,16.40
2023-03-29T05:42:05.476Z,18.30
2023-03-29T05:44:32.252Z,19.30
2023-03-29T05:46:59.450Z,19.20
2023-03-29T05:49:27.489Z,19.00
2023-03-29T05:51:57.302Z,17.80
2023-03-29T05:54:25.901Z,19.10
2023-03-29T05:56:52.732Z,19.50
2023-03-29T05:59:20.427Z,21.50
2023-03-29T06:01:47.251Z,28.40
2023-03-29T06:04:15.129Z,19.70
2023-03-29T06:06:42.206Z,18.00
2023-03-29T06:09:09.589Z,26.10
2023-03-29T06:11:38.119Z,29.30
2023-03-29T06:14:06.798Z,35.60
2023-03-29T06:16:34.222Z,27.50
2023-03-29T06:19:01.112Z,27.90
2023-03-29T06:21:30.491Z,30.70
2023-03-29T06:23:57.313Z,41.20
2023-03-29T06:26:24.718Z,37.40
2023-03-29T06:28:52.939Z,41.30
2023-03-29T06:31:20.905Z,47.10
2023-03-29T06:33:49.214Z,49.80
2023-03-29T06:36:17.136Z,54.30
2023-03-29T06:38:46.413Z,47.50
2023-03-29T06:41:13.437Z,47.90
2023-03-29T06:43:42.026Z,53.00
2023-03-29T06:46:13.159Z,53.50
2023-03-29T06:48:42.212Z,54.80
2023-03-29T06:51:13.309Z,49.80
2023-03-29T06:53:40.169Z,56.50
2023-03-29T06:56:11.536Z,48.80
2023-03-29T06:58:41.715Z,57.50
2023-03-29T07:01:20.477Z,58.30
2023-03-29T07:03:52.032Z,76.00
2023-03-29T07:06:43.134Z,56.30
2023-03-29T07:09:30.967Z,51.70
2023-03-29T07:14:46.820Z,62.40
2023-03-29T07:17:20.923Z,50.20
2023-03-29T07:20:01.365Z,48.00
2023-03-29T07:22:30.652Z,53.50
2023-03-29T07:25:02.998Z,43.20
2023-03-29T07:27:29.795Z,49.80
2023-03-29T07:29:58.910Z,50.60
2023-03-29T07:32:28.905Z,44.20
2023-03-29T07:34:58.238Z,39.80
2023-03-29T07:37:29.124Z,43.80
2023-03-29T07:39:57.945Z,32.40
2023-03-29T07:42:29.778Z,29.40
2023-03-29T07:44:56.468Z,32.30
2023-03-29T07:47:23.695Z,29.00
2023-03-29T07:49:52.449Z,27.50
2023-03-29T07:52:19.188Z,30.10
2023-03-29T07:54:48.122Z,24.10
2023-03-29T07:57:14.998Z,23.40
2023-03-29T07:59:42.932Z,21.00
2023-03-29T08:02:14.862Z,21.20
2023-03-29T08:04:47.716Z,22.00
2023-03-29T08:07:24.210Z,19.30
2023-03-29T08:12:21.603Z,19.20
2023-03-29T08:14:49.630Z,22.80
2023-03-29T08:17:38.780Z,13.80
2023-03-29T08:20:22.707Z,11.10
2023-03-29T08:22:52.804Z,11.30
2023-03-29T08:25:20.893Z,15.20
2023-03-29T08:28:14.186Z,15.60
2023-03-29T08:30:50.699Z,16.40
2023-03-29T08:33:39.932Z,16.00
2023-03-29T08:36:12.826Z,20.70
2023-03-29T08:39:03.911Z,20.10
2023-03-29T08:41:36.617Z,24.80
2023-03-29T08:44:30.372Z,27.40
2023-03-29T08:46:59.875Z,24.80
2023-03-29T08:49:28.522Z,26.90
2023-03-29T08:52:01.110Z,21.20
2023-03-29T08:54:43.956Z,24.90
2023-03-29T08:57:32.598Z,23.60
2023-03-29T09:00:05.316Z,16.20
2023-03-29T09:02:36.153Z,11.10
2023-03-29T09:05:32.423Z,11.80
2023-03-29T09:08:01.234Z,17.70
2023-03-29T09:10:39.594Z,13.20
2023-03-29T09:13:19.809Z,8.60
2023-03-29T09:16:03.370Z,7.50
2023-03-29T09:19:04.170Z,8.20
2023-03-29T09:21:41.582Z,5.80
2023-03-29T09:24:30.159Z,6.30
2023-03-29T09:27:09.910Z,6.40
2023-03-29T09:29:43.118Z,6.10
2023-03-29T09:32:22.192Z,8.40
2023-03-29T09:35:06.192Z,10.90
2023-03-29T09:37:37.013Z,7.80
2023-03-29T09:40:11.377Z,6.80
2023-03-29T09:42:39.444Z,8.30
2023-03-29T09:45:10.462Z,10.40
2023-03-29T09:47:55.616Z,7.50
2023-03-29T09:50:37.182Z,6.80
2023-03-29T09:53:05.436Z,7.10
2023-03-29T09:55:33.864Z,7.30
2023-03-29T09:58:06.502Z,7.00
2023-03-29T10:00:33.898Z,6.20
2023-03-29T10:03:00.747Z,5.50
2023-03-29T10:05:32.800Z,6.00
2023-03-29T10:08:01.077Z,7.20
2023-03-29T10:10:33.620Z,5.70
2023-03-29T10:13:05.765Z,5.70
2023-03-29T10:15:33.488Z,6.80
2023-03-29T10:18:03.544Z,7.60
2023-03-29T10:20:31.634Z,7.50
2023-03-29T10:22:59.498Z,6.10
2023-03-29T10:25:31.023Z,8.80
2023-03-29T10:28:08.162Z,10.20
2023-03-29T10:30:37.240Z,9.30
2023-03-29T10:33:06.902Z,9.20
2023-03-29T10:35:40.556Z,9.40
2023-03-29T10:38:14.539Z,11.90
2023-03-29T10:40:48.342Z,10.10
2023-03-29T10:43:26.729Z,8.90
2023-03-29T10:45:56.158Z,7.70
2023-03-29T10:48:31.555Z,5.90
2023-03-29T10:51:02.451Z,5.80
2023-03-29T10:53:35.835Z,5.60
2023-03-29T10:56:13.016Z,7.60
2023-03-29T10:59:19.447Z,10.10
2023-03-29T11:02:14.014Z,7.40
2023-03-29T11:05:08.832Z,8.90
2023-03-29T11:07:40.244Z,5.30
2023-03-29T11:10:44.746Z,4.90
2023-03-29T11:13:23.644Z,12.20
2023-03-29T11:16:15.104Z,5.30
2023-03-29T11:18:56.575Z,7.50
2023-03-29T11:21:35.600Z,9.40
2023-03-29T11:24:17.908Z,4.90
2023-03-29T11:26:59.830Z,7.20
2023-03-29T11:29:50.280Z,7.00
2023-03-29T11:32:33.286Z,5.70
2023-03-29T11:35:30.430Z,5.90
2023-03-29T11:38:14.208Z,7.30
2023-03-29T11:41:02.737Z,5.20
2023-03-29T11:43:42.547Z,4.90
2023-03-29T11:46:20.942Z,8.90
2023-03-29T11:48:59.059Z,4.40
2023-03-29T11:51:32.160Z,6.90
2023-03-29T11:54:02.068Z,4.80
2023-03-29T11:56:40.528Z,4.00
2023-03-29T11:59:22.885Z,7.90
2023-03-29T12:02:01.754Z,5.80
2023-03-29T12:04:41.810Z,4.00
2023-03-29T12:07:21.089Z,3.80
2023-03-29T12:09:55.799Z,6.40
2023-03-29T12:12:47.556Z,10.20
2023-03-29T12:15:24.704Z,5.00
2023-03-29T12:18:04.818Z,3.90
2023-03-29T12:20:38.581Z,7.00
2023-03-29T12:23:12.841Z,5.90
2023-03-29T12:25:53.613Z,4.50
2023-03-29T12:28:51.318Z,4.50
2023-03-29T12:31:32.947Z,4.00
2023-03-29T12:34:09.267Z,7.40
2023-03-29T12:39:35.026Z,6.70
2023-03-29T12:42:19.731Z,5.80
2023-03-29T12:45:10.805Z,3.50
2023-03-29T12:48:02.108Z,5.80
2023-03-29T12:51:08.956Z,13.30
2023-03-29T12:54:00.671Z,9.50
2023-03-29T12:57:05.201Z,24.90
2023-03-29T12:59:48.483Z,13.50
2023-03-29T13:02:17.875Z,6.30
2023-03-29T13:05:10.223Z,20.20
2023-03-29T13:08:26.595Z,4.70
2023-03-29T13:11:33.827Z,3.70
2023-03-29T13:14:04.514Z,24.80
2023-03-29T13:16:51.261Z,5.70
2023-03-29T13:22:30.320Z,5.80
2023-03-29T13:25:22.199Z,4.40
2023-03-29T13:28:01.341Z,4.50
2023-03-29T13:31:05.579Z,4.10
2023-03-29T13:34:11.029Z,4.50
2023-03-29T13:37:29.016Z,4.80
2023-03-29T13:40:39.635Z,5.60
2023-03-29T13:43:24.192Z,5.80
2023-03-29T13:45:57.036Z,6.40
2023-03-29T13:48:49.066Z,5.60
2023-03-29T13:51:32.577Z,3.70
2023-03-29T13:54:32.472Z,3.80
2023-03-29T13:57:14.570Z,4.10
2023-03-29T13:59:47.819Z,5.00
2023-03-29T14:02:28.316Z,4.80
2023-03-29T14:05:38.462Z,3.40
2023-03-29T14:08:28.216Z,5.60
2023-03-29T14:10:57.961Z,6.10
2023-03-29T14:13:33.824Z,5.50
2023-03-29T14:16:10.525Z,5.60
2023-03-29T14:18:42.221Z,4.40
2023-03-29T14:21:18.810Z,4.60
2023-03-29T14:23:54.971Z,6.60
2023-03-29T14:29:38.898Z,4.50
2023-03-29T14:32:40.362Z,4.60
2023-03-29T14:35:12.772Z,6.30
2023-03-29T14:37:47.714Z,4.30
2023-03-29T14:40:22.617Z,5.60
2023-03-29T14:42:51.144Z,4.30
2023-03-29T14:45:24.413Z,6.50
2023-03-29T14:48:05.136Z,4.70
2023-03-29T14:50:37.686Z,5.60
2023-03-29T14:53:10.492Z,3.90
2023-03-29T14:56:04.357Z,5.60
2023-03-29T14:59:04.710Z,4.30
2023-03-29T15:01:43.742Z,5.50
2023-03-29T15:05:13.222Z,4.40
2023-03-29T15:08:32.833Z,4.60
2023-03-29T15:11:17.740Z,5.10
2023-03-29T15:13:46.854Z,5.10
2023-03-29T15:16:20.078Z,5.50
2023-03-29T15:19:17.903Z,4.70
2023-03-29T15:22:11.735Z,4.60
2023-03-29T15:24:47.889Z,11.30
2023-03-29T15:27:42.985Z,5.30
2023-03-29T15:31:07.970Z,19.40
2023-03-29T15:34:37.451Z,29.90
2023-03-29T15:37:05.175Z,7.50
2023-03-29T15:39:56.139Z,9.60
2023-03-29T15:42:47.723Z,7.30
2023-03-29T15:45:40.658Z,4.60
2023-03-29T15:48:19.984Z,7.20
2023-03-29T15:50:50.039Z,5.90
2023-03-29T15:53:18.275Z,4.90
2023-03-29T15:56:09.315Z,8.40
2023-03-29T16:01:55.252Z,4.30
2023-03-29T16:04:23.154Z,5.40
2023-03-29T16:07:19.350Z,11.60
2023-03-29T16:09:46.170Z,7.70
2023-03-29T16:12:36.123Z,6.60
2023-03-29T16:15:14.910Z,6.60
2023-03-29T16:17:41.769Z,5.90
2023-03-29T16:20:09.975Z,5.90
2023-03-29T16:22:37.105Z,4.50
2023-03-29T16:25:06.032Z,4.70
2023-03-29T16:27:32.831Z,3.60
2023-03-29T16:30:39.329Z,12.90
2023-03-29T16:33:09.496Z,5.20
2023-03-29T16:35:42.647Z,5.30
2023-03-29T16:38:29.345Z,5.70
2023-03-29T16:41:36.906Z,4.60
2023-03-29T16:44:27.604Z,5.60
2023-03-29T16:47:36.923Z,5.90
2023-03-29T16:51:10.872Z,5.80
2023-03-29T16:54:16.050Z,5.20
2023-03-29T16:56:43.207Z,5.70
2023-03-29T16:59:37.236Z,3.80
2023-03-29T17:02:04.530Z,5.40
2023-03-29T17:04:33.923Z,5.60
2023-03-29T17:07:02.118Z,5.20
2023-03-29T17:09:40.071Z,3.60
2023-03-29T17:12:21.031Z,5.70
2023-03-29T17:15:09.166Z,4.70
2023-03-29T17:17:39.151Z,3.80
2023-03-29T17:20:29.118Z,4.00
2023-03-29T17:23:03.586Z,4.20
2023-03-29T17:26:12.182Z,3.80
2023-03-29T17:28:39.483Z,3.50
2023-03-29T17:31:52.416Z,7.00
2023-03-29T17:34:47.192Z,6.10
2023-03-29T17:37:25.730Z,4.20
2023-03-29T17:39:54.814Z,3.20
2023-03-29T17:42:21.889Z,3.80
2023-03-29T17:44:49.954Z,4.60
2023-03-29T17:47:19.370Z,4.80
2023-03-29T17:49:46.329Z,4.40
2023-03-29T17:52:13.551Z,4.80
2023-03-29T17:55:00.235Z,4.00
2023-03-29T17:57:38.870Z,3.60
2023-03-29T18:00:10.563Z,4.90
2023-03-29T18:02:37.992Z,6.70
2023-03-29T18:05:06.304Z,5.70
2023-03-29T18:07:33.974Z,3.90
2023-03-29T18:10:01.410Z,4.70
2023-03-29T18:12:29.467Z,6.20
2023-03-29T18:14:57.593Z,3.90
2023-03-29T18:17:27.315Z,5.70
2023-03-29T18:19:54.777Z,5.80
2023-03-29T18:22:23.816Z,5.20
2023-03-29T18:24:52.088Z,8.90
2023-03-29T18:27:21.464Z,5.60
2023-03-29T18:29:49.505Z,4.00
2023-03-29T18:32:17.008Z,4.80
2023-03-29T18:34:44.982Z,5.70
2023-03-29T18:37:15.592Z,6.20
2023-03-29T18:39:43.629Z,5.90
2023-03-29T18:42:13.889Z,6.50
2023-03-29T18:44:42.570Z,8.10
2023-03-29T18:47:09.966Z,6.90
2023-03-29T18:49:37.553Z,5.90
2023-03-29T18:52:06.237Z,10.10
2023-03-29T18:54:33.731Z,6.70
2023-03-29T18:57:05.462Z,7.80
2023-03-29T18:59:37.529Z,9.00
2023-03-29T19:02:05.619Z,11.30
2023-03-29T19:04:33.408Z,7.40
2023-03-29T19:07:01.939Z,6.00
2023-03-29T19:09:30.010Z,9.60
2023-03-29T19:11:58.752Z,8.10
2023-03-29T19:14:32.634Z,8.30
2023-03-29T19:17:00.749Z,8.10
2023-03-29T19:19:28.368Z,8.60
2023-03-29T19:21:59.044Z,10.30
2023-03-29T19:24:30.340Z,8.40
2023-03-29T19:26:59.166Z,13.50
2023-03-29T19:29:27.214Z,12.90
2023-03-29T19:31:56.790Z,10.40
2023-03-29T19:34:27.014Z,13.60
2023-03-29T19:36:56.688Z,12.70
2023-03-29T19:39:28.605Z,13.50
2023-03-29T19:41:57.151Z,14.30
2023-03-29T19:44:24.743Z,12.00
2023-03-29T19:46:52.398Z,14.50
2023-03-29T19:49:23.975Z,13.20
2023-03-29T19:51:54.223Z,14.60
2023-03-29T19:54:22.202Z,12.00
2023-03-29T19:56:52.360Z,13.90
2023-03-29T19:59:20.481Z,14.20
2023-03-29T20:01:50.708Z,14.00
2023-03-29T20:04:23.498Z,12.80
2023-03-29T20:06:51.692Z,16.40
2023-03-29T20:09:38.493Z,9.90
2023-03-29T20:12:07.472Z,13.50
2023-03-29T20:14:34.836Z,13.10
2023-03-29T20:17:02.474Z,19.70
2023-03-29T20:19:29.770Z,14.70
2023-03-29T20:21:57.826Z,14.00
2023-03-29T20:24:25.770Z,19.90
2023-03-29T20:26:53.533Z,15.90
2023-03-29T20:29:20.902Z,15.10
2023-03-29T20:31:49.063Z,19.80
2023-03-29T20:34:18.183Z,19.10
2023-03-29T20:36:46.748Z,15.70
2023-03-29T20:39:17.517Z,16.20
2023-03-29T20:41:47.339Z,19.10
2023-03-29T20:44:16.719Z,16.30
2023-03-29T20:46:54.048Z,21.20
2023-03-29T20:49:25.995Z,16.80
2023-03-29T20:51:58.918Z,13.80
2023-03-29T20:54:26.273Z,18.90
2023-03-29T20:56:54.758Z,15.30
2023-03-29T20:59:22.948Z,18.70
2023-03-29T21:01:51.824Z,18.10
2023-03-29T21:04:19.059Z,15.80
2023-03-29T21:06:49.440Z,17.20
2023-03-29T21:09:21.666Z,13.50
2023-03-29T21:11:48.513Z,20.50
2023-03-29T21:14:19.271Z,17.80
2023-03-29T21:16:47.005Z,17.00
2023-03-29T21:19:15.264Z,20.40
2023-03-29T21:21:43.324Z,20.20
2023-03-29T21:24:13.082Z,20.30
2023-03-29T21:26:43.275Z,19.90
2023-03-29T21:29:10.193Z,19.20
2023-03-29T21:31:37.544Z,20.80
2023-03-29T21:34:04.089Z,17.30
2023-03-29T21:36:30.953Z,16.70
2023-03-29T21:38:57.927Z,16.40
2023-03-29T21:41:24.523Z,21.20
2023-03-29T21:43:51.410Z,22.20
2023-03-29T21:46:18.200Z,17.90
2023-03-29T21:48:44.749Z,19.50
2023-03-29T21:51:11.811Z,20.60
2023-03-29T21:53:38.704Z,26.70
2023-03-29T21:56:06.266Z,23.10
2023-03-29T21:58:33.050Z,26.00
2023-03-29T22:01:02.199Z,23.60
2023-03-29T22:03:29.837Z,26.90
2023-03-29T22:06:09.154Z,29.00
2023-03-29T22:08:40.245Z,24.90
2023-03-29T22:11:14.394Z,26.10
2023-03-29T22:13:42.823Z,32.70
2023-03-29T22:16:13.832Z,32.30
2023-03-29T22:18:44.606Z,32.70
2023-03-29T22:21:14.281Z,31.40
2023-03-29T22:23:42.577Z,30.60
2023-03-29T22:26:11.428Z,33.70
2023-03-29T22:28:39.017Z,35.80
2023-03-29T22:31:08.401Z,37.30
2023-03-29T22:33:37.195Z,39.90
2023-03-29T22:36:16.024Z,39.00
2023-03-29T22:38:43.935Z,34.10
2023-03-29T22:41:10.567Z,41.80
2023-03-29T22:43:37.537Z,35.50
2023-03-29T22:46:06.199Z,37.40
2023-03-29T22:48:33.270Z,41.80
2023-03-29T22:51:00.328Z,39.90
2023-03-29T22:53:27.403Z,39.20
2023-03-29T22:55:54.975Z,33.00
2023-03-29T22:58:21.609Z,41.80
2023-03-29T23:00:49.143Z,37.10
2023-03-29T23:03:16.249Z,42.20
2023-03-29T23:05:49.910Z,40.60
2023-03-29T23:08:16.653Z,44.30
2023-03-29T23:10:44.889Z,37.40
2023-03-29T23:13:13.858Z,39.00
2023-03-29T23:15:47.251Z,38.70
2023-03-29T23:18:22.475Z,34.10
2023-03-29T23:20:56.756Z,40.40
2023-03-29T23:23:25.550Z,39.00
2023-03-29T23:25:53.443Z,38.10
2023-03-29T23:28:23.115Z,38.60
2023-03-29T23:31:06.221Z,33.90
2023-03-29T23:33:34.839Z,42.00
2023-03-29T23:36:07.408Z,30.70
2023-03-29T23:38:36.410Z,37.00
2023-03-29T23:41:05.890Z,37.60
2023-03-29T23:43:35.232Z,34.60
2023-03-29T23:46:05.186Z,38.00
2023-03-29T23:48:33.876Z,37.60
2023-03-29T23:51:39.049Z,40.60
2023-03-29T23:54:06.230Z,36.30
2023-03-29T23:56:33.176Z,34.40
2023-03-29T23:58:59.763Z,35.60
